Time;durP1;ratioP1;P1;durP2;ratioP2;P2;SDS_P1;SDS_P2;PMS_P1;PMS_P2;Temp;Humidity;BMP_temperature;BMP_pressure;BME280_temperature;BME280_humidity;BME280_pressure;Samples;Min_cycle;Max_cycle;Signal;HPM_P1;HPM_P2
2021/08/10 00:01:17;;;;;;;3.83;1.83;;;20.80;99.90;;;21.31;58.87;101262.31;5017587;27;98029;-47
2021/08/10 00:03:43;;;;;;;2.13;1.20;;;20.80;99.90;;;21.29;59.00;101272.31;5004280;27;97860;-45
2021/08/10 00:06:09;;;;;;;1.80;1.23;;;20.70;99.90;;;21.29;58.92;101266.94;4995145;27;98345;-45
2021/08/10 00:08:35;;;;;;;6.63;2.67;;;20.70;99.90;;;21.30;58.95;101265.97;5003388;27;98912;-49
2021/08/10 00:11:01;;;;;;;1.20;1.10;;;20.80;99.90;;;21.31;58.88;101270.38;5012031;27;98256;-48
2021/08/10 00:13:27;;;;;;;1.30;1.03;;;20.80;99.90;;;21.36;58.83;101262.84;4999769;27;97150;-50
2021/08/10 00:15:53;;;;;;;1.43;0.90;;;20.90;99.90;;;21.41;58.43;101266.06;4998506;27;99384;-50
2021/08/10 00:18:20;;;;;;;2.43;1.80;;;21.00;99.90;;;21.48;58.43;101256.59;5017139;27;101112;-49
2021/08/10 00:20:46;;;;;;;1.33;0.87;;;21.10;99.90;;;21.52;58.36;101258.09;5001801;27;98473;-51
2021/08/10 00:23:12;;;;;;;3.03;1.20;;;21.10;99.90;;;21.57;58.09;101255.97;4986437;27;98224;-50
2021/08/10 00:25:38;;;;;;;1.70;1.13;;;21.20;99.90;;;21.61;57.99;101254.75;4998772;27;97735;-49
2021/08/10 00:28:04;;;;;;;1.33;0.80;;;21.30;99.90;;;21.66;57.88;101254.41;4990081;27;98826;-49
2021/08/10 00:30:30;;;;;;;1.33;0.90;;;21.30;99.90;;;21.69;57.70;101259.56;5013335;27;97665;-50
2021/08/10 00:32:56;;;;;;;1.53;1.07;;;21.30;99.90;;;21.76;57.55;101252.78;4994739;27;98828;-52
2021/08/10 00:35:22;;;;;;;1.07;0.97;;;21.40;99.90;;;21.85;57.24;101248.56;4997247;27;99047;-50
2021/08/10 00:37:48;;;;;;;2.77;0.93;;;21.60;99.90;;;21.92;56.94;101249.81;4995823;27;100555;-51
2021/08/10 00:40:15;;;;;;;0.77;0.77;;;21.70;99.90;;;21.96;56.85;101257.53;4991063;27;97508;-52
2021/08/10 00:42:42;;;;;;;1.20;1.10;;;21.70;99.90;;;22.00;56.83;101258.19;5013708;27;97666;-49
2021/08/10 00:45:08;;;;;;;0.87;0.80;;;21.80;99.90;;;22.03;56.60;101255.28;4991258;27;97863;-48
2021/08/10 00:47:34;;;;;;;0.80;0.80;;;21.80;99.90;;;22.07;56.42;101259.47;4993765;27;102885;-50
2021/08/10 00:50:00;;;;;;;1.10;1.00;;;21.90;99.90;;;22.12;56.37;101257.28;4990598;27;99657;-49
2021/08/10 00:52:26;;;;;;;1.93;0.90;;;22.00;99.90;;;22.14;56.29;101255.38;5009099;27;98656;-50
2021/08/10 00:54:52;;;;;;;4.80;1.67;;;22.00;99.90;;;22.12;56.26;101251.91;5011229;27;100273;-45
2021/08/10 00:57:18;;;;;;;1.10;0.90;;;21.90;99.90;;;22.10;56.52;101253.00;5017890;27;100162;-49
2021/08/10 00:59:44;;;;;;;1.53;1.10;;;21.80;99.90;;;22.09;56.44;101252.16;5035296;27;100140;-46
2021/08/10 01:02:10;;;;;;;1.70;1.00;;;21.80;99.90;;;22.12;56.33;101251.91;5011103;27;98664;-48
2021/08/10 01:04:37;;;;;;;0.83;0.77;;;21.90;99.90;;;22.12;56.37;101246.53;5013064;27;106783;-46
2021/08/10 01:07:36;;;;;;;0.97;0.90;;;21.90;99.90;;;22.14;56.27;101250.00;5013162;27;99397;-48
2021/08/10 01:10:20;;;;;;;2.20;1.00;;;21.90;99.90;;;22.09;56.30;101251.28;5027617;27;96903;-51
2021/08/10 01:13:17;;;;;;;1.37;1.13;;;21.80;99.90;;;22.06;56.46;101260.44;5029919;27;97253;-46
2021/08/10 01:15:57;;;;;;;1.30;1.00;;;21.80;99.90;;;22.01;56.69;101254.53;5010299;28;102740;-47
2021/08/10 01:18:33;;;;;;;1.10;1.00;;;21.70;99.90;;;21.97;56.65;101255.69;5008369;28;102639;-49
2021/08/10 01:21:27;;;;;;;4.80;2.53;;;21.70;99.90;;;21.94;56.57;101258.63;5013242;27;97414;-48
2021/08/10 01:24:33;;;;;;;1.03;0.90;;;21.60;99.90;;;21.89;56.88;101260.81;5006917;27;97930;-50
2021/08/10 01:27:27;;;;;;;1.53;0.83;;;21.50;99.90;;;21.85;56.94;101249.44;4968398;27;99816;-48
2021/08/10 01:30:13;;;;;;;1.27;1.07;;;21.50;99.90;;;21.88;56.90;101242.97;5014095;27;97397;-50
2021/08/10 01:32:43;;;;;;;1.13;0.97;;;21.50;99.90;;;21.89;56.82;101250.06;5012946;27;96655;-47
2021/08/10 01:35:11;;;;;;;1.20;1.00;;;21.60;99.90;;;21.86;56.88;101255.66;5013292;27;97375;-47
2021/08/10 01:37:39;;;;;;;1.20;1.07;;;21.50;99.90;;;21.87;56.89;101252.84;5013328;27;100487;-50
2021/08/10 01:40:10;;;;;;;1.83;1.10;;;21.60;99.90;;;21.87;56.91;101243.94;5011539;27;97933;-45
2021/08/10 01:42:38;;;;;;;1.43;1.07;;;21.50;99.90;;;21.86;57.06;101242.22;5017335;27;97085;-50
2021/08/10 01:45:05;;;;;;;1.50;1.10;;;21.60;99.90;;;21.83;57.12;101240.59;5025373;27;97181;-45
2021/08/10 01:47:32;;;;;;;2.10;1.13;;;21.50;99.90;;;21.79;57.29;101238.25;5010980;27;98172;-50
2021/08/10 01:50:00;;;;;;;1.07;0.93;;;21.40;99.90;;;21.74;57.26;101238.63;5006031;27;98680;-50
2021/08/10 01:52:28;;;;;;;1.20;0.90;;;21.30;99.90;;;21.74;57.51;101229.69;5029735;27;97589;-51
2021/08/10 01:54:55;;;;;;;1.50;1.10;;;21.30;99.90;;;21.77;57.41;101224.09;5027148;27;97402;-46
2021/08/10 01:57:21;;;;;;;1.87;0.93;;;21.40;99.90;;;21.81;57.28;101225.59;5020773;27;98490;-48
2021/08/10 01:59:54;;;;;;;2.70;1.20;;;21.40;99.90;;;21.84;57.18;101220.84;5013266;27;98296;-51
2021/08/10 02:02:20;;;;;;;1.20;1.00;;;21.50;99.90;;;21.88;56.93;101218.81;5023151;27;98602;-46
2021/08/10 02:04:49;;;;;;;1.23;0.90;;;21.60;99.90;;;21.90;57.03;101216.84;5008767;27;97156;-48
2021/08/10 02:07:15;;;;;;;1.57;1.10;;;21.60;99.90;;;21.93;56.91;101214.78;5013093;27;103453;-46
2021/08/10 02:09:42;;;;;;;1.00;0.90;;;21.70;99.90;;;21.95;56.89;101209.31;5013538;27;97486;-45
2021/08/10 02:12:09;;;;;;;0.77;0.77;;;21.70;99.90;;;21.98;56.81;101211.75;5014772;27;98785;-51
2021/08/10 02:14:36;;;;;;;0.83;0.80;;;21.70;99.90;;;22.03;56.78;101214.13;5016119;28;97011;-44
2021/08/10 02:17:06;;;;;;;1.10;1.00;;;21.80;99.90;;;22.06;56.40;101214.78;4992134;27;99434;-46
2021/08/10 02:19:34;;;;;;;1.33;0.90;;;21.80;99.90;;;22.09;56.32;101219.91;5027943;27;100939;-46
2021/08/10 02:22:07;;;;;;;1.30;0.90;;;21.90;99.90;;;22.11;56.46;101217.97;5026505;27;101917;-47
2021/08/10 02:25:07;;;;;;;2.70;1.57;;;21.90;99.90;;;22.09;56.37;101230.66;5017983;27;97190;-49
2021/08/10 02:27:40;;;;;;;1.67;1.17;;;21.90;99.90;;;22.03;56.55;101225.72;5026183;27;102516;-46
2021/08/10 02:30:14;;;;;;;2.27;1.57;;;21.70;99.90;;;22.00;56.45;101220.59;5026292;27;98180;-45
2021/08/10 02:32:43;;;;;;;0.70;0.70;;;21.70;99.90;;;21.94;56.75;101216.50;4998107;28;98722;-50
2021/08/10 02:35:10;;;;;;;1.13;0.87;;;21.60;99.90;;;21.92;56.92;101220.28;5031086;27;97191;-44
2021/08/10 02:37:37;;;;;;;1.20;0.90;;;21.60;99.90;;;21.94;56.79;101216.50;5013181;27;116803;-49
2021/08/10 02:40:08;;;;;;;1.53;1.10;;;21.60;99.90;;;21.95;56.87;101212.00;5029960;27;98015;-51
2021/08/10 02:42:35;;;;;;;1.10;1.00;;;21.60;99.90;;;21.94;56.86;101216.50;5032300;27;96793;-49
2021/08/10 02:45:01;;;;;;;3.83;2.33;;;21.60;99.90;;;21.91;56.69;101214.06;5015140;27;97013;-48
2021/08/10 02:47:29;;;;;;;3.87;2.80;;;21.60;99.90;;;21.80;56.82;101237.28;5008174;28;97720;-50
2021/08/10 02:49:54;;;;;;;3.87;2.50;;;21.40;99.90;;;21.66;57.39;101244.53;5029070;27;99266;-50
2021/08/10 02:52:20;;;;;;;3.63;1.73;;;21.20;99.90;;;21.55;57.83;101247.13;5019275;27;97327;-53
2021/08/10 02:54:48;;;;;;;5.20;2.60;;;21.00;99.90;;;21.49;58.01;101252.94;5017357;27;97013;-45
2021/08/10 02:57:33;;;;;;;2.30;1.10;;;20.90;99.90;;;21.47;58.26;101256.72;5015508;27;101218;-46
2021/08/10 03:00:10;;;;;;;1.33;1.00;;;20.90;99.90;;;21.46;58.15;101242.44;5010135;27;98577;-45
2021/08/10 03:02:43;;;;;;;2.13;1.00;;;21.00;99.90;;;21.48;58.16;101232.44;5030509;27;97501;-46
2021/08/10 03:05:16;;;;;;;1.63;1.13;;;21.00;99.90;;;21.53;58.03;101216.00;5009098;27;98962;-49
2021/08/10 03:07:51;;;;;;;2.53;1.13;;;21.20;99.90;;;21.59;57.93;101215.56;5016117;27;100985;-51
2021/08/10 03:10:19;;;;;;;4.60;2.97;;;21.30;99.90;;;21.60;57.69;101220.84;5007410;27;103722;-47
2021/08/10 03:12:50;;;;;;;2.90;1.63;;;21.30;99.90;;;21.62;57.74;101226.09;5015236;27;98525;-48
2021/08/10 03:15:21;;;;;;;2.63;1.13;;;21.30;99.90;;;21.64;57.76;101222.31;5026182;27;97561;-47
2021/08/10 03:17:51;;;;;;;6.30;3.13;;;21.30;99.90;;;21.49;57.96;101242.22;4998362;27;99939;-51
2021/08/10 03:20:20;;;;;;;5.17;3.13;;;21.20;99.90;;;21.49;58.40;101279.78;5011236;27;102253;-45
2021/08/10 03:22:47;;;;;;;4.13;2.93;;;21.00;99.90;;;21.44;58.23;101313.31;5014950;27;96929;-46
2021/08/10 03:25:15;;;;;;;10.57;3.80;;;21.00;99.90;;;21.33;58.66;101319.41;5026538;27;97190;-49
2021/08/10 03:27:42;;;;;;;6.27;2.93;;;21.00;99.90;;;21.31;58.79;101318.66;5018571;27;100202;-47
2021/08/10 03:30:10;;;;;;;5.20;2.60;;;20.90;99.90;;;21.33;58.89;101319.41;5010352;27;99226;-47
2021/08/10 03:32:36;;;;;;;5.73;3.10;;;21.00;99.90;;;21.29;58.59;101328.66;5017742;27;97262;-48
2021/08/10 03:35:04;;;;;;;5.63;2.73;;;21.00;99.90;;;21.30;58.75;101327.69;5011515;27;97177;-49
2021/08/10 03:37:32;;;;;;;6.47;3.10;;;21.00;99.90;;;21.31;58.95;101324.03;5027368;27;98982;-47
2021/08/10 03:39:59;;;;;;;5.63;3.10;;;21.00;99.90;;;21.35;58.60;101322.84;5028650;27;98886;-46
2021/08/10 03:42:27;;;;;;;5.93;3.40;;;21.10;99.90;;;21.37;58.55;101312.84;4996290;28;98058;-48
2021/08/10 03:44:54;;;;;;;6.40;3.70;;;21.10;99.90;;;21.39;58.62;101310.91;5011729;27;97311;-51
2021/08/10 03:47:21;;;;;;;3.63;2.40;;;21.00;99.90;;;21.36;58.71;101317.38;5011694;28;98615;-48
2021/08/10 03:49:49;;;;;;;6.00;3.40;;;21.00;99.90;;;21.29;59.05;101317.94;5034127;27;98297;-48
2021/08/10 03:52:16;;;;;;;5.80;3.70;;;20.80;99.90;;;21.27;59.20;101301.09;5014168;27;97276;-45
2021/08/10 03:54:43;;;;;;;4.63;2.20;;;20.80;99.90;;;21.25;59.01;101301.16;5023976;27;97321;-47
2021/08/10 03:57:20;;;;;;;8.33;2.70;;;20.80;99.90;;;21.26;58.86;101293.97;5034167;27;102935;-50
2021/08/10 03:59:53;;;;;;;7.13;3.77;;;20.80;99.90;;;21.22;59.02;101308.53;5020654;27;97087;-47
2021/08/10 04:02:20;;;;;;;5.30;2.23;;;20.70;99.90;;;21.19;59.27;101298.03;5035354;27;98507;-45
2021/08/10 04:04:49;;;;;;;5.90;2.50;;;20.60;99.90;;;21.17;59.42;101299.97;5014420;27;97063;-49
2021/08/10 04:07:16;;;;;;;5.00;2.70;;;20.60;99.90;;;21.16;59.27;101293.75;5012438;27;103154;-48
2021/08/10 04:09:43;;;;;;;3.10;1.80;;;20.60;99.90;;;21.20;59.29;101283.66;5017450;27;97309;-50
2021/08/10 04:12:11;;;;;;;2.57;1.70;;;20.70;99.90;;;21.21;59.31;101288.91;5030692;27;96944;-47
2021/08/10 04:14:40;;;;;;;3.07;1.53;;;20.70;99.90;;;21.28;58.92;101273.28;5016462;27;97179;-47
2021/08/10 04:17:07;;;;;;;2.53;1.53;;;20.90;99.90;;;21.39;58.63;101243.84;5016829;27;100055;-48
2021/08/10 04:19:38;;;;;;;4.00;1.60;;;21.10;99.90;;;21.53;58.21;101249.06;5031340;27;96941;-46
2021/08/10 04:22:05;;;;;;;6.47;3.10;;;21.30;99.90;;;21.59;58.07;101263.91;5015089;27;97465;-52
2021/08/10 04:24:31;;;;;;;2.63;1.70;;;21.40;99.90;;;21.61;58.09;101262.81;5015871;27;96959;-49
2021/08/10 04:26:57;;;;;;;2.60;1.70;;;21.40;99.90;;;21.64;57.92;101259.91;5016244;27;97578;-49
2021/08/10 04:29:24;;;;;;;3.43;1.67;;;21.30;99.90;;;21.72;57.77;101242.38;5015033;27;103106;-49
2021/08/10 04:31:50;;;;;;;2.33;1.70;;;21.50;99.90;;;21.80;57.40;101239.97;5013416;27;96958;-48
2021/08/10 04:34:16;;;;;;;3.87;1.70;;;21.60;99.90;;;21.87;57.23;101235.88;5030645;27;97081;-49
2021/08/10 04:36:41;;;;;;;2.30;1.40;;;21.70;99.90;;;21.90;57.08;101236.50;5016075;27;97202;-47
2021/08/10 04:39:07;;;;;;;2.07;1.70;;;21.70;99.90;;;21.97;56.96;101236.91;5012687;27;97157;-50
2021/08/10 04:41:34;;;;;;;1.97;1.47;;;21.80;99.90;;;22.02;56.72;101239.25;5008477;27;97940;-48
2021/08/10 04:44:00;;;;;;;1.67;1.53;;;21.90;99.90;;;22.04;56.63;101245.38;5024952;27;97449;-49
2021/08/10 04:46:27;;;;;;;2.53;1.37;;;21.90;99.90;;;22.04;56.55;101248.91;5012787;27;99248;-50
2021/08/10 04:48:54;;;;;;;3.03;1.90;;;21.90;99.90;;;22.04;56.53;101253.44;5031774;27;98040;-45
2021/08/10 04:51:20;;;;;;;2.70;1.77;;;21.80;99.90;;;22.06;56.56;101241.63;5008981;27;101135;-48
2021/08/10 04:53:46;;;;;;;1.90;1.50;;;21.90;99.90;;;22.10;56.49;101237.72;5034338;27;97793;-47
2021/08/10 04:56:12;;;;;;;1.70;1.33;;;21.90;99.90;;;22.13;56.43;101242.00;5028251;27;99759;-50
2021/08/10 04:58:39;;;;;;;2.80;1.70;;;22.00;99.90;;;22.15;56.41;101249.03;5019283;27;99605;-45
2021/08/10 05:01:05;;;;;;;1.70;1.50;;;22.00;99.90;;;22.17;56.38;101244.38;5010435;27;98236;-48
2021/08/10 05:03:32;;;;;;;2.77;1.67;;;22.00;99.90;;;22.20;56.19;101243.28;5034565;27;96880;-49
2021/08/10 05:05:58;;;;;;;2.80;1.77;;;22.00;99.90;;;22.21;56.20;101245.84;5013885;27;99960;-49
2021/08/10 05:08:25;;;;;;;2.27;1.77;;;22.10;99.90;;;22.22;56.13;101252.94;5016186;27;97528;-48
2021/08/10 05:10:53;;;;;;;2.97;1.93;;;22.10;99.90;;;22.23;56.21;101260.03;5028294;27;97465;-48
2021/08/10 05:13:19;;;;;;;2.63;1.90;;;22.10;99.90;;;22.19;56.15;101253.19;5013319;27;96959;-50
2021/08/10 05:15:45;;;;;;;1.97;1.40;;;22.00;99.90;;;22.19;56.17;101250.50;5017762;27;98615;-48
2021/08/10 05:18:11;;;;;;;1.80;1.30;;;22.00;99.90;;;22.22;56.11;101244.88;5013013;27;97381;-47
2021/08/10 05:20:37;;;;;;;1.77;1.40;;;22.10;99.90;;;22.26;55.97;101253.56;5030904;27;97343;-45
2021/08/10 05:23:03;;;;;;;5.70;2.90;;;22.10;99.90;;;22.23;55.80;101261.84;5005927;27;96841;-45
2021/08/10 05:25:29;;;;;;;1.70;1.40;;;22.10;99.90;;;22.19;56.17;101269.31;5016202;27;100796;-49
2021/08/10 05:27:55;;;;;;;3.07;2.07;;;22.00;99.90;;;22.14;56.26;101273.31;4994816;27;98663;-49
2021/08/10 05:30:21;;;;;;;3.13;1.80;;;21.90;99.90;;;22.07;56.46;101275.59;5006631;27;97313;-53
2021/08/10 05:32:47;;;;;;;5.70;2.90;;;21.80;99.90;;;21.93;56.68;101275.72;5018366;28;97041;-46
2021/08/10 05:35:13;;;;;;;3.90;2.90;;;21.60;99.90;;;21.85;57.12;101292.41;5016767;27;100513;-48
2021/08/10 05:37:39;;;;;;;5.60;3.87;;;21.40;99.90;;;21.74;57.72;101299.50;5017626;27;99125;-45
2021/08/10 05:40:06;;;;;;;2.03;1.83;;;21.30;99.90;;;21.68;57.60;101290.91;5009587;27;103541;-50
2021/08/10 05:42:32;;;;;;;5.07;2.67;;;21.20;99.90;;;21.67;57.64;101288.34;5033461;27;96998;-50
2021/08/10 05:44:57;;;;;;;2.77;1.90;;;21.30;99.90;;;21.64;57.83;101300.16;5006451;27;99014;-49
2021/08/10 05:47:23;;;;;;;1.77;1.50;;;21.20;99.90;;;21.68;57.66;101298.09;5014127;27;97790;-48
2021/08/10 05:49:50;;;;;;;2.47;1.93;;;21.30;99.90;;;21.69;57.64;101292.63;5009940;27;97031;-53
2021/08/10 05:52:16;;;;;;;5.50;3.13;;;21.40;99.90;;;21.71;57.68;101294.38;5015367;28;97735;-50
2021/08/10 05:54:42;;;;;;;1.93;1.60;;;21.40;99.90;;;21.72;57.62;101296.09;5013997;27;98375;-47
2021/08/10 05:57:07;;;;;;;4.03;2.30;;;21.40;99.90;;;21.79;57.40;101300.03;5003587;27;96985;-51
2021/08/10 05:59:33;;;;;;;5.03;2.93;;;21.50;99.90;;;21.80;57.20;101293.69;5017062;27;96714;-46
2021/08/10 06:02:00;;;;;;;6.57;3.30;;;21.60;99.90;;;21.78;57.42;101301.84;5011089;27;97258;-49
2021/08/10 06:04:26;;;;;;;2.53;1.63;;;21.60;99.90;;;21.75;57.68;101298.53;5019839;27;98656;-50
2021/08/10 06:06:52;;;;;;;4.80;2.47;;;21.40;99.90;;;21.79;57.38;101297.34;5009410;27;97417;-44
2021/08/10 06:09:19;;;;;;;4.03;2.40;;;21.50;99.90;;;21.80;57.33;101293.69;5012241;27;97344;-44
2021/08/10 06:11:45;;;;;;;1.63;1.30;;;21.50;99.90;;;21.80;57.48;101294.53;5002870;28;98997;-47
2021/08/10 06:14:10;;;;;;;1.73;1.47;;;21.50;99.90;;;21.86;57.23;101285.19;4991393;27;99650;-46
2021/08/10 06:16:37;;;;;;;1.83;1.50;;;21.60;99.90;;;21.89;57.07;101282.28;4993373;27;98616;-51
2021/08/10 06:19:04;;;;;;;2.27;1.50;;;21.70;99.90;;;21.92;57.11;101282.06;4992689;27;97418;-45
2021/08/10 06:21:30;;;;;;;2.37;1.60;;;21.80;99.90;;;22.00;56.85;101285.03;4993830;27;98118;-50
2021/08/10 06:23:57;;;;;;;2.07;1.60;;;21.90;99.90;;;22.04;56.76;101286.53;4995198;27;97906;-44
2021/08/10 06:26:23;;;;;;;2.50;1.67;;;22.00;99.90;;;22.11;56.51;101285.13;4995708;27;98580;-49
2021/08/10 06:28:49;;;;;;;1.70;1.43;;;22.00;99.90;;;22.12;56.46;101291.34;4994125;27;97992;-46
2021/08/10 06:31:15;;;;;;;5.40;3.83;;;22.10;99.90;;;22.15;56.92;101283.94;4999702;27;98632;-46
2021/08/10 06:33:41;;;;;;;3.27;1.83;;;22.10;99.90;;;22.23;56.23;101292.28;5009612;27;98383;-48
2021/08/10 06:36:07;;;;;;;1.87;1.40;;;22.20;99.90;;;22.30;56.09;101289.16;5010423;27;98591;-51
2021/08/10 06:38:33;;;;;;;2.20;1.57;;;22.20;99.90;;;22.33;56.03;101288.91;4992814;27;103828;-48
2021/08/10 06:41:00;;;;;;;3.00;1.90;;;22.30;99.90;;;22.33;55.92;101286.22;5009316;27;97949;-52
2021/08/10 06:43:26;;;;;;;7.27;4.07;;;22.30;99.90;;;22.27;58.09;101283.00;4996116;27;98898;-49
2021/08/10 06:45:52;;;;;;;3.83;2.67;;;22.20;99.90;;;22.30;56.21;101281.09;4993475;27;99141;-44
2021/08/10 06:48:17;;;;;;;1.87;1.50;;;22.20;99.90;;;22.23;56.31;101284.22;4995441;27;98620;-46
2021/08/10 06:50:43;;;;;;;3.37;2.37;;;22.10;99.90;;;22.24;57.00;101287.75;4991950;27;97940;-48
2021/08/10 06:53:09;;;;;;;2.60;1.57;;;22.10;99.90;;;22.20;56.27;101276.38;4993916;27;118703;-51
2021/08/10 06:55:35;;;;;;;2.63;1.87;;;22.00;99.90;;;22.21;56.39;101278.09;4988081;27;97967;-51
2021/08/10 06:58:01;;;;;;;1.40;1.30;;;22.10;99.90;;;22.25;56.32;101294.84;4994185;27;99069;-47
2021/08/10 07:00:27;;;;;;;5.67;3.10;;;22.20;99.90;;;22.26;56.44;101289.34;5007033;27;97533;-46
2021/08/10 07:02:53;;;;;;;3.10;1.93;;;22.20;99.90;;;22.30;56.05;101291.84;5011294;27;98524;-50
2021/08/10 07:05:19;;;;;;;4.10;2.57;;;22.20;99.90;;;22.22;56.66;101295.94;4988698;27;97362;-48
2021/08/10 07:07:45;;;;;;;2.60;1.97;;;22.10;99.90;;;22.21;56.44;101296.91;4987192;27;104803;-51
2021/08/10 07:10:11;;;;;;;2.17;1.40;;;22.00;99.90;;;22.19;56.46;101290.78;4994161;27;98980;-50
2021/08/10 07:12:37;;;;;;;4.77;3.20;;;22.00;99.90;;;22.19;56.98;101285.41;4985480;27;97707;-44
2021/08/10 07:15:04;;;;;;;1.83;1.47;;;22.10;99.90;;;22.15;56.43;101294.69;4975939;27;100777;-50
2021/08/10 07:17:29;;;;;;;2.00;1.30;;;22.10;99.90;;;22.21;56.44;101296.91;5000915;27;101901;-49
2021/08/10 07:19:55;;;;;;;3.50;1.50;;;22.20;99.90;;;22.22;56.26;101301.31;4989008;27;101709;-46
2021/08/10 07:22:21;;;;;;;1.90;1.70;;;22.20;99.90;;;22.27;56.21;101304.50;4990462;27;97648;-49
2021/08/10 07:24:47;;;;;;;1.93;1.70;;;22.20;99.90;;;22.30;56.04;101294.53;4995149;27;101697;-49
2021/08/10 07:27:13;;;;;;;1.57;1.47;;;22.30;99.90;;;22.29;56.15;101300.88;5000423;27;98446;-46
2021/08/10 07:29:39;;;;;;;1.50;1.40;;;22.30;99.90;;;22.35;55.95;101300.41;4994618;27;99200;-47
2021/08/10 07:32:05;;;;;;;2.57;1.77;;;22.30;99.90;;;22.33;55.95;101302.34;4994816;27;98672;-51
2021/08/10 07:34:31;;;;;;;1.60;1.50;;;22.40;99.90;;;22.40;55.85;101298.22;4995760;27;98805;-50
2021/08/10 07:36:56;;;;;;;1.77;1.37;;;22.30;99.90;;;22.43;55.68;101298.00;4995671;27;98863;-47
2021/08/10 07:39:22;;;;;;;4.03;2.17;;;22.40;99.90;;;22.43;55.86;101292.63;4982794;28;98146;-45
2021/08/10 07:41:48;;;;;;;1.90;1.50;;;22.40;99.90;;;22.37;55.81;101290.38;4988113;27;97502;-53
2021/08/10 07:44:14;;;;;;;1.60;1.30;;;22.40;99.90;;;22.40;55.85;101287.47;4995237;27;98767;-46
2021/08/10 07:46:40;;;;;;;1.77;1.53;;;22.30;99.90;;;22.42;55.83;101290.88;4996534;27;98039;-48
2021/08/10 07:49:06;;;;;;;2.03;1.70;;;22.40;99.90;;;22.38;55.87;101292.97;5001793;27;98656;-50
2021/08/10 07:51:32;;;;;;;1.63;1.33;;;22.30;99.90;;;22.39;56.07;101304.56;5018076;27;98375;-48
2021/08/10 07:53:58;;;;;;;2.80;2.03;;;22.30;99.90;;;22.41;56.93;101305.31;5013518;27;97220;-48
2021/08/10 07:56:24;;;;;;;2.63;1.83;;;22.30;99.90;;;22.43;55.92;101303.38;5003800;27;99669;-49
2021/08/10 07:58:50;;;;;;;4.93;3.63;;;22.30;99.90;;;22.42;59.41;101307.00;4999368;27;99346;-50
2021/08/10 08:01:16;;;;;;;8.10;3.43;;;22.30;99.90;;;22.40;58.41;101303.59;4983167;27;107155;-50
2021/08/10 08:03:42;;;;;;;2.03;1.50;;;22.30;99.90;;;22.34;56.21;101299.53;5013643;27;98076;-49
2021/08/10 08:06:07;;;;;;;5.93;4.00;;;22.20;99.90;;;22.31;56.27;101293.53;5000690;27;98886;-48
2021/08/10 08:08:33;;;;;;;2.23;1.50;;;22.10;99.90;;;22.21;56.65;101296.91;5019537;27;98833;-49
2021/08/10 08:11:00;;;;;;;6.10;3.73;;;22.00;99.90;;;22.14;58.95;101290.28;5011266;27;97747;-50
2021/08/10 08:13:26;;;;;;;4.57;3.43;;;21.90;99.90;;;22.12;57.80;101289.53;5002827;27;97141;-49
2021/08/10 08:15:54;;;;;;;9.03;4.53;;;21.90;99.90;;;22.03;60.50;101283.97;4998198;27;98041;-53
2021/08/10 08:18:21;;;;;;;6.67;3.97;;;21.70;99.90;;;22.07;57.25;101286.31;5017204;27;97670;-51
2021/08/10 08:20:47;;;;;;;7.87;4.10;;;21.80;99.90;;;22.08;57.83;101288.03;4997093;27;98122;-54
2021/08/10 08:23:15;;;;;;;7.90;4.20;;;21.80;99.90;;;22.03;57.66;101278.59;5007649;27;98990;-46
2021/08/10 08:25:41;;;;;;;5.97;3.53;;;21.80;99.90;;;22.00;58.93;101279.69;4995765;27;101060;-49
2021/08/10 08:28:12;;;;;;;6.97;4.57;;;21.70;99.90;;;21.94;58.49;101280.09;5001380;27;99627;-48
2021/08/10 08:30:40;;;;;;;7.37;4.23;;;21.60;99.90;;;21.91;58.55;101278.50;4999254;27;99607;-51
2021/08/10 08:33:07;;;;;;;6.50;3.90;;;21.60;99.90;;;21.88;60.48;101280.56;4991026;27;99554;-49
2021/08/10 08:35:35;;;;;;;6.37;3.17;;;21.60;99.90;;;21.80;58.91;101288.31;5021416;27;98744;-46
2021/08/10 08:38:01;;;;;;;7.73;3.80;;;21.50;99.90;;;21.80;59.85;101283.81;5015218;27;99233;-50
2021/08/10 08:40:27;;;;;;;1.93;1.70;;;21.50;99.90;;;21.76;58.65;101286.81;5002144;27;99787;-45
2021/08/10 08:42:53;;;;;;;6.73;3.93;;;21.40;99.90;;;21.81;60.48;101290.03;4997949;27;99917;-47
2021/08/10 08:45:19;;;;;;;5.63;3.93;;;21.50;99.90;;;21.77;60.96;101288.53;5005260;27;97319;-49
2021/08/10 08:47:55;;;;;;;2.33;1.50;;;21.50;99.90;;;21.79;58.39;101283.91;5015838;27;98829;-47
2021/08/10 08:50:23;;;;;;;7.83;3.70;;;21.50;99.90;;;21.72;62.62;101277.28;5000760;27;98529;-44
2021/08/10 08:52:57;;;;;;;9.20;4.13;;;21.50;99.90;;;21.61;63.19;101284.28;4994100;27;99620;-50
2021/08/10 08:55:24;;;;;;;5.77;4.20;;;21.30;99.90;;;21.65;59.30;101285.78;5020394;27;97969;-51
2021/08/10 08:57:50;;;;;;;5.77;3.87;;;21.30;99.90;;;21.67;61.72;101277.59;5002092;27;104252;-48
2021/08/10 09:00:18;;;;;;;6.43;4.10;;;21.40;99.90;;;21.66;59.33;101275.88;4985038;27;100430;-50
2021/08/10 09:02:44;;;;;;;6.67;4.33;;;21.40;99.90;;;21.62;62.51;101280.63;4998530;27;98530;-47
2021/08/10 09:05:12;;;;;;;6.80;4.10;;;21.40;99.90;;;21.56;63.39;101281.09;5016588;27;101401;-52
2021/08/10 09:07:38;;;;;;;4.67;3.60;;;21.30;99.90;;;21.64;60.17;101278.69;4997635;27;98801;-46
2021/08/10 09:10:14;;;;;;;6.00;4.17;;;21.40;99.90;;;21.69;59.66;101273.84;5000336;27;97759;-48
2021/08/10 09:12:54;;;;;;;3.77;2.90;;;21.40;99.90;;;21.74;59.49;101273.53;4998931;27;99408;-44
2021/08/10 09:15:44;;;;;;;6.10;3.47;;;21.50;99.90;;;21.81;58.17;101274.78;4999204;27;97602;-46
2021/08/10 09:18:20;;;;;;;6.00;3.20;;;21.60;99.90;;;21.84;58.24;101273.69;4999348;27;97771;-51
2021/08/10 09:21:06;;;;;;;4.13;3.33;;;21.70;99.90;;;21.89;58.19;101271.53;4996126;27;100930;-50
2021/08/10 09:23:55;;;;;;;4.93;3.20;;;21.70;99.90;;;21.92;58.34;101272.16;5019136;27;98508;-47
2021/08/10 09:26:42;;;;;;;5.27;3.03;;;21.70;99.90;;;21.97;57.92;101274.50;4999024;27;97275;-51
2021/08/10 09:29:08;;;;;;;6.13;3.20;;;21.80;99.90;;;21.97;57.80;101279.88;4990191;27;98573;-49
2021/08/10 09:31:53;;;;;;;4.83;3.27;;;21.80;99.90;;;22.01;58.34;101275.16;5017027;27;101011;-49
2021/08/10 09:34:22;;;;;;;5.93;3.33;;;21.80;99.90;;;22.01;58.14;101281.38;4996512;27;103380;-52
2021/08/10 09:36:49;;;;;;;7.57;3.87;;;21.90;99.90;;;21.93;59.85;101283.75;5013890;27;97771;-48
2021/08/10 09:39:15;;;;;;;4.20;3.57;;;21.80;99.90;;;21.86;58.66;101283.38;5018770;27;98454;-49
2021/08/10 09:42:05;;;;;;;3.90;3.40;;;21.70;99.90;;;21.95;57.88;101276.44;5011650;27;101893;-51
2021/08/10 09:44:32;;;;;;;3.80;2.97;;;21.80;99.90;;;21.96;57.96;101278.16;5022483;27;97895;-48
2021/08/10 09:46:58;;;;;;;4.57;3.37;;;21.80;99.90;;;21.97;59.38;101279.88;4997703;27;98891;-47
2021/08/10 09:49:45;;;;;;;8.47;3.60;;;21.80;99.90;;;21.94;61.54;101282.78;5003066;27;97818;-51
2021/08/10 09:52:27;;;;;;;6.20;3.87;;;21.70;99.90;;;21.96;59.47;101283.53;5011476;27;101810;-47
2021/08/10 09:54:54;;;;;;;3.90;3.10;;;21.70;99.90;;;21.95;58.51;101292.56;5012813;27;99144;-49
2021/08/10 09:57:20;;;;;;;5.63;3.43;;;21.80;99.90;;;21.96;58.28;101281.72;5001143;27;97561;-51
2021/08/10 09:59:47;;;;;;;6.60;3.20;;;21.80;99.90;;;21.95;60.75;101282.69;5017383;27;98443;-51
2021/08/10 10:02:23;;;;;;;4.60;3.20;;;21.80;99.90;;;21.95;59.87;101287.19;5016207;27;99210;-51
2021/08/10 10:04:56;;;;;;;4.00;2.87;;;21.70;99.90;;;21.98;58.38;101286.97;5013646;27;98274;-51
2021/08/10 10:07:23;;;;;;;4.60;3.23;;;21.80;99.90;;;22.00;58.29;101285.03;5017396;27;97210;-52
2021/08/10 10:09:50;;;;;;;7.27;3.87;;;21.80;99.90;;;21.99;62.08;101277.97;5003113;27;98616;-49
2021/08/10 10:12:23;;;;;;;5.87;3.57;;;21.80;99.90;;;22.00;61.40;101281.50;5019073;27;97420;-54
2021/08/10 10:14:50;;;;;;;5.93;3.93;;;21.80;99.90;;;21.98;59.65;101276.22;4995964;27;100283;-49
2021/08/10 10:17:16;;;;;;;4.40;3.30;;;21.80;99.90;;;22.02;58.00;101285.78;5015589;27;97059;-52